createdAt,value
2017-07-27T00:01:23.498Z,9.70
2017-07-27T00:03:50.946Z,8.40
2017-07-27T00:06:18.435Z,8.33
2017-07-27T00:08:45.909Z,8.70
2017-07-27T00:11:13.356Z,7.97
2017-07-27T00:13:40.823Z,9.10
2017-07-27T00:16:08.278Z,8.43
2017-07-27T00:18:35.738Z,9.60
2017-07-27T00:21:03.224Z,9.93
2017-07-27T00:23:30.682Z,8.00
2017-07-27T00:25:58.907Z,5.67
2017-07-27T00:28:26.388Z,5.53
2017-07-27T00:30:53.851Z,6.97
2017-07-27T00:33:21.320Z,6.50
2017-07-27T00:35:48.803Z,6.37
2017-07-27T00:38:16.260Z,8.70
2017-07-27T00:40:43.776Z,7.63
2017-07-27T00:43:11.254Z,5.27
2017-07-27T00:45:39.474Z,6.10
2017-07-27T00:48:07.004Z,5.07
2017-07-27T00:50:34.477Z,4.07
2017-07-27T00:53:01.940Z,3.83
2017-07-27T00:55:29.401Z,4.07
2017-07-27T00:57:56.872Z,3.80
2017-07-27T01:00:24.345Z,3.93
2017-07-27T01:02:51.830Z,3.13
2017-07-27T01:05:20.072Z,3.73
2017-07-27T01:07:47.661Z,3.93
2017-07-27T01:10:15.899Z,2.90
2017-07-27T01:12:43.379Z,3.23
2017-07-27T01:15:11.618Z,3.73
2017-07-27T01:17:39.079Z,3.60
2017-07-27T01:20:06.579Z,4.27
2017-07-27T01:22:34.804Z,3.43
2017-07-27T01:25:02.269Z,3.70
2017-07-27T01:27:29.767Z,4.20
2017-07-27T01:29:57.991Z,4.40
2017-07-27T01:32:25.452Z,4.03
2017-07-27T01:34:52.936Z,4.70
2017-07-27T01:37:20.391Z,4.50
2017-07-27T01:39:47.990Z,3.90
2017-07-27T01:42:15.574Z,3.97
2017-07-27T01:44:43.036Z,5.50
2017-07-27T01:47:10.507Z,5.37
2017-07-27T01:49:38.000Z,5.57
2017-07-27T01:52:06.231Z,5.80
2017-07-27T01:54:33.697Z,6.43
2017-07-27T01:57:01.184Z,6.23
2017-07-27T01:59:29.422Z,5.60
2017-07-27T02:01:56.874Z,5.83
2017-07-27T02:04:24.402Z,7.43
2017-07-27T02:06:51.862Z,5.83
2017-07-27T02:09:20.376Z,6.10
2017-07-27T02:11:47.898Z,6.27
2017-07-27T02:14:15.347Z,6.70
2017-07-27T02:16:42.827Z,6.27
2017-07-27T02:19:10.303Z,5.57
2017-07-27T02:21:37.763Z,7.37
2017-07-27T02:24:05.224Z,5.97
2017-07-27T02:26:32.709Z,6.30
2017-07-27T02:29:00.183Z,6.30
2017-07-27T02:31:28.423Z,5.90
2017-07-27T02:33:55.915Z,6.27
2017-07-27T02:36:23.379Z,6.43
2017-07-27T02:38:50.852Z,6.63
2017-07-27T02:41:18.380Z,6.40
2017-07-27T02:43:46.641Z,6.60
2017-07-27T02:46:14.104Z,5.97
2017-07-27T02:48:42.330Z,6.63
2017-07-27T02:51:09.806Z,5.83
2017-07-27T02:53:37.299Z,6.80
2017-07-27T02:56:05.529Z,7.80
2017-07-27T02:58:32.991Z,7.70
2017-07-27T03:01:00.457Z,6.43
2017-07-27T03:03:28.061Z,6.00
2017-07-27T03:05:55.522Z,7.07
2017-07-27T03:08:22.983Z,6.40
2017-07-27T03:10:50.459Z,7.27
2017-07-27T03:13:18.928Z,7.07
2017-07-27T03:15:46.411Z,6.80
2017-07-27T03:18:13.874Z,7.30
2017-07-27T03:20:41.337Z,7.00
2017-07-27T03:23:08.809Z,6.77
2017-07-27T03:25:36.295Z,6.73
2017-07-27T03:28:03.780Z,7.10
2017-07-27T03:30:31.237Z,6.40
2017-07-27T03:32:58.711Z,6.67
2017-07-27T03:35:26.176Z,5.97
2017-07-27T03:37:53.631Z,4.60
2017-07-27T03:40:21.131Z,5.43
2017-07-27T03:42:48.598Z,6.83
2017-07-27T03:45:16.058Z,4.93
2017-07-27T03:47:43.536Z,4.10
2017-07-27T03:50:11.000Z,3.57
2017-07-27T03:52:38.453Z,4.33
2017-07-27T03:55:05.946Z,4.53
2017-07-27T03:57:33.407Z,3.70
2017-07-27T04:00:00.863Z,4.50
2017-07-27T04:02:28.341Z,4.70
2017-07-27T04:04:55.804Z,4.50
2017-07-27T04:07:23.270Z,4.30
2017-07-27T04:09:50.754Z,3.90
2017-07-27T04:12:18.213Z,3.77
2017-07-27T04:14:45.681Z,4.40
2017-07-27T04:17:13.148Z,3.70
2017-07-27T04:19:40.616Z,4.40
2017-07-27T04:22:08.127Z,4.83
2017-07-27T04:24:35.610Z,3.87
2017-07-27T04:27:03.067Z,4.00
2017-07-27T04:29:30.532Z,4.07
2017-07-27T04:31:58.007Z,4.03
2017-07-27T04:34:25.468Z,3.97
2017-07-27T04:36:53.707Z,3.73
2017-07-27T04:39:21.194Z,3.90
2017-07-27T04:41:48.648Z,3.87
2017-07-27T04:44:16.107Z,3.63
2017-07-27T04:46:44.345Z,3.90
2017-07-27T04:49:11.860Z,3.80
2017-07-27T04:51:39.316Z,4.17
2017-07-27T04:54:06.793Z,4.20
2017-07-27T04:56:34.262Z,3.87
2017-07-27T04:59:01.731Z,4.03
2017-07-27T05:01:29.290Z,3.27
2017-07-27T05:03:56.766Z,4.40
2017-07-27T05:06:24.231Z,4.13
2017-07-27T05:08:51.738Z,3.77
2017-07-27T05:11:19.251Z,3.40
2017-07-27T05:13:46.734Z,4.10
2017-07-27T05:16:14.209Z,4.47
2017-07-27T05:18:41.667Z,4.43
2017-07-27T05:21:09.177Z,4.00
2017-07-27T05:23:37.420Z,4.60
2017-07-27T05:26:04.907Z,5.20
2017-07-27T05:28:33.140Z,5.27
2017-07-27T05:31:00.601Z,4.43
2017-07-27T05:33:28.103Z,4.23
2017-07-27T05:35:56.331Z,3.70
2017-07-27T05:38:23.789Z,4.90
2017-07-27T05:40:51.272Z,4.70
2017-07-27T05:43:18.719Z,4.83
2017-07-27T05:45:46.179Z,4.90
2017-07-27T05:48:14.452Z,4.27
2017-07-27T05:50:41.918Z,4.43
2017-07-27T05:53:09.389Z,3.53
2017-07-27T05:55:36.854Z,4.33
2017-07-27T05:58:05.079Z,4.50
2017-07-27T06:00:32.639Z,4.47
2017-07-27T06:03:00.115Z,4.47
2017-07-27T06:05:27.589Z,5.30
2017-07-27T06:07:55.056Z,4.17
2017-07-27T06:10:22.566Z,4.60
2017-07-27T06:12:50.082Z,4.30
2017-07-27T06:15:17.780Z,5.40
2017-07-27T06:17:45.256Z,4.50
2017-07-27T06:20:12.758Z,3.60
2017-07-27T06:22:40.251Z,4.40
2017-07-27T06:25:07.724Z,3.77
2017-07-27T06:27:35.188Z,4.17
2017-07-27T06:30:02.656Z,4.00
2017-07-27T06:32:30.117Z,4.13
2017-07-27T06:34:57.606Z,3.70
2017-07-27T06:37:25.068Z,4.23
2017-07-27T06:39:52.538Z,4.50
2017-07-27T06:42:20.023Z,4.40
2017-07-27T06:44:47.580Z,4.13
2017-07-27T06:47:15.058Z,4.50
2017-07-27T06:49:42.518Z,4.50
2017-07-27T06:52:09.979Z,4.70
2017-07-27T06:54:38.212Z,5.20
2017-07-27T06:57:05.685Z,5.33
2017-07-27T06:59:33.143Z,4.80
2017-07-27T07:02:00.594Z,4.07
2017-07-27T07:04:28.098Z,3.10
2017-07-27T07:06:56.311Z,4.83
2017-07-27T07:09:23.799Z,4.90
2017-07-27T07:11:54.172Z,4.53
2017-07-27T07:14:21.637Z,4.73
2017-07-27T07:16:49.117Z,3.27
2017-07-27T07:19:16.597Z,4.70
2017-07-27T07:21:44.097Z,3.73
2017-07-27T07:24:11.564Z,3.77
2017-07-27T07:26:39.039Z,4.50
2017-07-27T07:29:06.561Z,5.93
2017-07-27T07:31:34.038Z,3.93
2017-07-27T07:34:01.488Z,4.73
2017-07-27T07:36:29.063Z,4.63
2017-07-27T07:38:56.568Z,4.23
2017-07-27T07:41:24.835Z,4.23
2017-07-27T07:43:53.538Z,4.67
2017-07-27T07:46:21.030Z,4.00
2017-07-27T07:48:49.562Z,4.67
2017-07-27T07:51:17.028Z,4.67
2017-07-27T07:53:44.495Z,4.37
2017-07-27T07:56:11.980Z,4.60
2017-07-27T07:58:39.510Z,4.20
2017-07-27T08:01:07.742Z,4.43
2017-07-27T08:03:35.207Z,4.00
2017-07-27T08:06:02.673Z,4.30
2017-07-27T08:08:30.142Z,3.83
2017-07-27T08:10:57.649Z,3.90
2017-07-27T08:13:25.119Z,4.43
2017-07-27T08:15:52.597Z,3.53
2017-07-27T08:18:20.071Z,3.57
2017-07-27T08:20:47.652Z,4.00
2017-07-27T08:23:15.139Z,4.60
2017-07-27T08:25:42.618Z,3.30
2017-07-27T08:28:10.091Z,3.80
2017-07-27T08:30:37.577Z,3.80
2017-07-27T08:33:05.050Z,3.53
2017-07-27T08:35:32.526Z,4.60
2017-07-27T08:37:59.997Z,3.97
2017-07-27T08:40:27.454Z,4.03
2017-07-27T08:42:54.918Z,4.73
2017-07-27T08:45:22.387Z,3.43
2017-07-27T08:47:49.869Z,3.90
2017-07-27T08:50:17.455Z,4.20
2017-07-27T08:52:44.921Z,3.53
2017-07-27T08:55:12.412Z,3.80
2017-07-27T08:57:39.886Z,4.60
2017-07-27T09:00:08.125Z,3.57
2017-07-27T09:02:35.900Z,4.20
2017-07-27T09:05:03.365Z,3.63
2017-07-27T09:07:30.825Z,3.33
2017-07-27T09:09:58.301Z,4.50
2017-07-27T09:12:26.569Z,3.23
2017-07-27T09:14:54.801Z,3.80
2017-07-27T09:17:22.272Z,4.77
2017-07-27T09:19:49.728Z,3.47
2017-07-27T09:22:17.200Z,4.27
2017-07-27T09:24:44.694Z,3.63
2017-07-27T09:27:13.012Z,4.17
2017-07-27T09:29:40.510Z,3.53
2017-07-27T09:32:08.749Z,4.23
2017-07-27T09:34:36.219Z,8.30
2017-07-27T09:37:03.708Z,3.00
2017-07-27T09:39:31.203Z,3.13
2017-07-27T09:41:58.651Z,3.40
2017-07-27T09:44:26.137Z,3.97
2017-07-27T09:46:53.596Z,4.47
2017-07-27T09:49:21.072Z,3.90
2017-07-27T09:51:49.392Z,4.70
2017-07-27T09:54:16.864Z,3.50
2017-07-27T09:56:44.333Z,3.63
2017-07-27T09:59:11.872Z,3.63
2017-07-27T10:01:39.329Z,3.43
2017-07-27T10:04:06.803Z,3.27
2017-07-27T10:06:34.287Z,3.00
2017-07-27T10:09:01.739Z,3.47
2017-07-27T10:11:29.209Z,4.40
2017-07-27T10:13:57.464Z,4.43
2017-07-27T10:16:24.934Z,3.07
2017-07-27T10:18:52.401Z,4.63
2017-07-27T10:21:19.875Z,4.07
2017-07-27T10:23:47.335Z,3.80
2017-07-27T10:26:14.800Z,3.83
2017-07-27T10:28:42.268Z,4.17
2017-07-27T10:31:09.732Z,3.40
2017-07-27T10:33:37.187Z,5.70
2017-07-27T10:36:04.667Z,3.40
2017-07-27T10:38:32.130Z,3.70
2017-07-27T10:40:59.599Z,3.90
2017-07-27T10:43:27.073Z,3.17
2017-07-27T10:45:54.526Z,3.80
2017-07-27T10:48:21.997Z,3.70
2017-07-27T10:50:49.470Z,3.43
2017-07-27T10:53:16.930Z,3.37
2017-07-27T10:55:44.392Z,4.37
2017-07-27T10:58:11.885Z,3.70
2017-07-27T11:00:39.352Z,3.40
2017-07-27T11:03:06.859Z,4.33
2017-07-27T11:05:34.359Z,3.90
2017-07-27T11:08:01.837Z,3.90
2017-07-27T11:10:30.076Z,3.60
2017-07-27T11:12:57.555Z,4.10
2017-07-27T11:15:25.016Z,4.17
2017-07-27T11:17:52.484Z,4.20
2017-07-27T11:20:19.942Z,3.23
2017-07-27T11:22:47.428Z,3.53
2017-07-27T11:25:14.887Z,4.30
2017-07-27T11:27:42.365Z,4.73
2017-07-27T11:30:09.851Z,3.80
2017-07-27T11:32:37.318Z,3.73
2017-07-27T11:35:04.793Z,3.80
2017-07-27T11:37:32.249Z,3.93
2017-07-27T11:39:59.707Z,3.70
2017-07-27T11:42:27.183Z,4.10
2017-07-27T11:44:54.651Z,3.97
2017-07-27T11:47:22.125Z,3.20
2017-07-27T11:49:49.624Z,3.70
2017-07-27T11:52:17.847Z,3.77
2017-07-27T11:54:45.323Z,3.20
2017-07-27T11:57:12.815Z,3.73
2017-07-27T11:59:40.278Z,4.10
2017-07-27T12:02:07.765Z,3.47
2017-07-27T12:04:35.256Z,3.87
2017-07-27T12:07:02.728Z,3.70
2017-07-27T12:09:30.192Z,4.17
2017-07-27T12:11:58.428Z,3.30
2017-07-27T12:14:25.887Z,4.07
2017-07-27T12:16:53.375Z,3.57
2017-07-27T12:19:21.684Z,2.90
2017-07-27T12:21:49.145Z,3.70
2017-07-27T12:24:16.610Z,3.77
2017-07-27T12:26:44.094Z,3.10
2017-07-27T12:29:11.573Z,3.00
2017-07-27T12:31:39.036Z,4.00
2017-07-27T12:34:06.544Z,4.73
2017-07-27T12:36:34.039Z,3.73
2017-07-27T12:39:01.501Z,3.77
2017-07-27T12:41:29.020Z,5.03
2017-07-27T12:43:56.496Z,4.17
2017-07-27T12:46:23.976Z,4.43
2017-07-27T12:48:52.219Z,3.60
2017-07-27T12:51:19.696Z,3.10
2017-07-27T12:53:47.161Z,3.37
2017-07-27T12:56:15.423Z,3.00
2017-07-27T12:58:42.897Z,3.30
2017-07-27T13:01:10.368Z,3.00
2017-07-27T13:03:38.600Z,2.50
2017-07-27T13:06:06.067Z,2.70
2017-07-27T13:08:33.539Z,2.20
2017-07-27T13:11:01.012Z,1.90
2017-07-27T13:13:28.477Z,2.70
2017-07-27T13:15:55.962Z,2.60
2017-07-27T13:18:23.440Z,2.20
2017-07-27T13:20:50.899Z,3.23
2017-07-27T13:23:18.352Z,2.37
2017-07-27T13:25:45.830Z,2.67
2017-07-27T13:28:13.306Z,3.27
2017-07-27T13:30:40.790Z,3.20
2017-07-27T13:33:08.263Z,2.60
2017-07-27T13:35:35.741Z,3.30
2017-07-27T13:38:03.218Z,3.00
2017-07-27T13:40:30.688Z,2.70
2017-07-27T13:42:58.912Z,2.80
2017-07-27T13:45:26.384Z,2.60
2017-07-27T13:47:53.876Z,2.83
2017-07-27T13:50:22.145Z,2.93
2017-07-27T13:52:50.385Z,2.70
2017-07-27T13:55:17.864Z,3.73
2017-07-27T13:57:45.388Z,3.20
2017-07-27T14:00:12.856Z,2.50
2017-07-27T14:02:40.363Z,3.10
2017-07-27T14:05:07.848Z,2.50
2017-07-27T14:07:35.331Z,3.53
2017-07-27T14:10:02.866Z,3.20
2017-07-27T14:12:30.334Z,3.17
2017-07-27T14:14:57.811Z,2.53
2017-07-27T14:17:25.295Z,2.60
2017-07-27T14:19:53.540Z,2.80
2017-07-27T14:22:21.040Z,3.40
2017-07-27T14:24:48.502Z,2.80
2017-07-27T14:27:16.009Z,2.97
2017-07-27T14:29:43.546Z,2.57
2017-07-27T14:32:10.998Z,2.77
2017-07-27T14:34:38.471Z,3.03
2017-07-27T14:37:05.961Z,3.50
2017-07-27T14:39:33.431Z,3.17
2017-07-27T14:42:01.657Z,2.60
2017-07-27T14:44:29.131Z,2.40
2017-07-27T14:46:56.608Z,2.03
2017-07-27T14:49:24.090Z,2.37
2017-07-27T14:51:51.555Z,2.87
2017-07-27T14:54:19.010Z,2.73
2017-07-27T14:56:47.245Z,2.60
2017-07-27T14:59:15.840Z,3.87
2017-07-27T15:01:43.317Z,2.93
2017-07-27T15:04:10.892Z,1.80
2017-07-27T15:06:38.351Z,2.30
2017-07-27T15:09:05.868Z,2.63
2017-07-27T15:11:34.099Z,2.63
2017-07-27T15:14:01.568Z,2.40
2017-07-27T15:16:29.035Z,3.00
2017-07-27T15:18:56.517Z,2.03
2017-07-27T15:21:24.016Z,2.67
2017-07-27T15:23:51.500Z,3.10
2017-07-27T15:26:19.048Z,2.63
2017-07-27T15:28:46.497Z,2.30
2017-07-27T15:31:13.959Z,2.70
2017-07-27T15:33:41.435Z,2.80
2017-07-27T15:36:08.981Z,2.40
2017-07-27T15:38:36.446Z,2.30
2017-07-27T15:41:03.926Z,2.17
2017-07-27T15:43:32.166Z,2.20
2017-07-27T15:45:59.683Z,2.10
2017-07-27T15:48:27.190Z,1.97
2017-07-27T15:50:54.668Z,2.10
2017-07-27T15:53:22.123Z,2.27
2017-07-27T15:55:50.407Z,2.73
2017-07-27T15:58:18.633Z,2.30
2017-07-27T16:00:46.183Z,2.40
2017-07-27T16:03:13.686Z,2.93
2017-07-27T16:05:41.977Z,2.77
2017-07-27T16:08:10.246Z,2.73
2017-07-27T16:10:37.784Z,2.50
2017-07-27T16:13:05.253Z,2.47
2017-07-27T16:15:32.789Z,2.00
2017-07-27T16:18:00.295Z,2.20
2017-07-27T16:20:27.789Z,2.47
2017-07-27T16:22:55.311Z,2.90
2017-07-27T16:25:22.893Z,3.27
2017-07-27T16:27:50.361Z,2.03
2017-07-27T16:30:18.179Z,2.40
2017-07-27T16:32:45.645Z,2.17
2017-07-27T16:35:13.160Z,2.37
2017-07-27T16:37:40.645Z,2.57
2017-07-27T16:40:08.908Z,2.07
2017-07-27T16:42:36.375Z,2.30
2017-07-27T16:45:03.840Z,2.07
2017-07-27T16:47:32.068Z,2.20
2017-07-27T16:49:59.599Z,2.30
2017-07-27T16:52:27.083Z,2.53
2017-07-27T16:54:54.592Z,2.70
2017-07-27T16:57:22.080Z,2.43
2017-07-27T16:59:49.590Z,2.67
2017-07-27T17:02:17.074Z,2.40
2017-07-27T17:04:44.557Z,2.67
2017-07-27T17:07:12.048Z,3.20
2017-07-27T17:09:40.225Z,3.13
2017-07-27T17:12:07.773Z,2.63
2017-07-27T17:14:35.247Z,2.63
2017-07-27T17:17:02.707Z,3.63
2017-07-27T17:19:31.006Z,2.90
2017-07-27T17:21:58.514Z,2.70
2017-07-27T17:24:25.991Z,2.90
2017-07-27T17:26:53.471Z,3.93
2017-07-27T17:29:21.707Z,3.37
2017-07-27T17:31:49.165Z,3.87
2017-07-27T17:34:16.646Z,3.03
2017-07-27T17:36:44.128Z,2.90
2017-07-27T17:39:11.609Z,3.73
2017-07-27T17:41:39.102Z,4.00
2017-07-27T17:44:06.594Z,3.30
2017-07-27T17:46:34.090Z,4.13
2017-07-27T17:51:35.345Z,3.40
2017-07-27T17:54:02.832Z,3.10
2017-07-27T17:56:30.303Z,3.27
2017-07-27T17:58:58.544Z,4.83
2017-07-27T18:01:26.116Z,3.57
2017-07-27T18:03:53.612Z,3.90
2017-07-27T18:06:21.195Z,3.80
2017-07-27T18:08:48.701Z,2.63
2017-07-27T18:11:16.179Z,3.90
2017-07-27T18:13:43.673Z,3.10
2017-07-27T18:16:11.144Z,3.33
2017-07-27T18:18:38.616Z,3.60
2017-07-27T18:21:06.103Z,3.30
2017-07-27T18:23:34.352Z,3.10
2017-07-27T18:26:01.832Z,3.03
2017-07-27T18:28:30.426Z,4.27
2017-07-27T18:30:57.902Z,2.80
2017-07-27T18:33:25.380Z,5.63
2017-07-27T18:35:52.888Z,3.23
2017-07-27T18:38:20.372Z,2.97
2017-07-27T18:40:47.852Z,3.70
2017-07-27T18:43:15.380Z,2.60
2017-07-27T18:45:42.840Z,3.30
2017-07-27T18:48:10.296Z,2.70
2017-07-27T18:50:37.767Z,2.90
2017-07-27T18:53:05.250Z,2.80
2017-07-27T18:55:32.709Z,2.30
2017-07-27T18:58:00.196Z,2.40
2017-07-27T19:00:28.491Z,3.00
2017-07-27T19:02:55.953Z,2.80
2017-07-27T19:05:23.433Z,2.53
2017-07-27T19:07:50.906Z,3.53
2017-07-27T19:10:18.374Z,3.10
2017-07-27T19:12:45.857Z,2.93
2017-07-27T19:15:14.101Z,2.80
2017-07-27T19:17:41.591Z,3.50
2017-07-27T19:20:09.115Z,3.10
2017-07-27T19:22:36.664Z,3.77
2017-07-27T19:25:04.165Z,3.60
2017-07-27T19:27:31.736Z,3.60
2017-07-27T19:29:59.256Z,3.13
2017-07-27T19:32:26.736Z,4.00
2017-07-27T19:34:55.016Z,3.30
2017-07-27T19:37:22.520Z,3.57
2017-07-27T19:39:50.008Z,3.17
2017-07-27T19:42:17.481Z,3.50
2017-07-27T19:44:46.161Z,4.10
2017-07-27T19:47:16.429Z,3.60
2017-07-27T19:49:44.020Z,4.47
2017-07-27T19:52:15.186Z,3.50
2017-07-27T19:54:43.587Z,2.80
2017-07-27T19:57:11.859Z,3.27
2017-07-27T19:59:39.327Z,2.87
2017-07-27T20:02:06.810Z,3.47
2017-07-27T20:04:34.890Z,3.53
2017-07-27T20:07:02.376Z,2.87
2017-07-27T20:09:31.250Z,4.00
2017-07-27T20:11:58.792Z,3.47
2017-07-27T20:14:27.223Z,4.30
2017-07-27T20:16:58.142Z,4.50
2017-07-27T20:19:28.767Z,4.13
2017-07-27T20:21:58.524Z,4.60
2017-07-27T20:24:26.023Z,4.03
2017-07-27T20:26:54.669Z,3.90
2017-07-27T20:29:24.539Z,3.30
2017-07-27T20:31:52.487Z,4.63
2017-07-27T20:34:21.697Z,4.70
2017-07-27T20:36:49.440Z,6.60
2017-07-27T20:39:16.928Z,4.10
2017-07-27T20:41:44.532Z,4.17
2017-07-27T20:44:12.008Z,2.73
2017-07-27T20:46:40.172Z,3.97
2017-07-27T20:49:07.677Z,5.17
2017-07-27T20:51:35.913Z,4.90
2017-07-27T20:54:03.382Z,3.30
2017-07-27T20:56:30.870Z,4.50
2017-07-27T20:58:59.122Z,4.70
2017-07-27T21:01:26.643Z,5.80
2017-07-27T21:03:54.117Z,5.33
2017-07-27T21:06:21.612Z,3.83
2017-07-27T21:08:49.101Z,4.00
2017-07-27T21:11:16.633Z,3.50
2017-07-27T21:13:45.021Z,4.10
2017-07-27T21:16:12.655Z,5.00
2017-07-27T21:18:40.131Z,3.67
2017-07-27T21:21:07.651Z,5.10
2017-07-27T21:23:35.112Z,3.80
2017-07-27T21:26:02.616Z,5.13
2017-07-27T21:28:30.083Z,4.57
2017-07-27T21:30:57.556Z,6.07
2017-07-27T21:33:25.326Z,3.40
2017-07-27T21:35:52.815Z,3.83
2017-07-27T21:38:20.288Z,3.97
2017-07-27T21:40:48.524Z,6.00
2017-07-27T21:43:15.999Z,4.13
2017-07-27T21:45:43.494Z,4.40
2017-07-27T21:48:10.986Z,4.50
2017-07-27T21:50:38.494Z,4.63
2017-07-27T21:53:05.989Z,4.70
2017-07-27T21:55:33.472Z,3.93
2017-07-27T21:58:00.962Z,4.40
2017-07-27T22:00:29.213Z,4.20
2017-07-27T22:02:56.707Z,4.00
2017-07-27T22:05:24.211Z,4.07
2017-07-27T22:07:51.680Z,4.17
2017-07-27T22:10:19.156Z,4.10
2017-07-27T22:12:46.610Z,4.50
2017-07-27T22:15:14.091Z,4.67
2017-07-27T22:17:42.335Z,4.53
2017-07-27T22:20:09.837Z,3.20
2017-07-27T22:22:37.318Z,3.90
2017-07-27T22:25:04.828Z,4.23
2017-07-27T22:27:33.113Z,4.20
2017-07-27T22:30:01.357Z,3.60
2017-07-27T22:32:28.843Z,4.47
2017-07-27T22:34:57.087Z,3.63
2017-07-27T22:37:24.565Z,4.10
2017-07-27T22:39:52.827Z,4.80
2017-07-27T22:42:20.349Z,4.83
2017-07-27T22:44:47.829Z,6.17
2017-07-27T22:47:15.306Z,6.23
2017-07-27T22:49:43.570Z,5.70
2017-07-27T22:52:11.087Z,4.93
2017-07-27T22:54:38.580Z,5.40
2017-07-27T22:57:06.056Z,6.03
2017-07-27T22:59:33.578Z,4.17
2017-07-27T23:02:01.048Z,5.30
2017-07-27T23:04:28.526Z,5.40
2017-07-27T23:06:55.984Z,5.60
2017-07-27T23:09:24.223Z,6.70
2017-07-27T23:11:51.743Z,5.57
2017-07-27T23:14:19.204Z,5.37
2017-07-27T23:16:46.731Z,5.37
2017-07-27T23:19:14.210Z,6.40
2017-07-27T23:21:41.709Z,5.57
2017-07-27T23:24:09.200Z,6.40
2017-07-27T23:26:37.454Z,6.40
2017-07-27T23:29:04.919Z,5.63
2017-07-27T23:31:32.513Z,4.23
2017-07-27T23:34:00.768Z,4.63
2017-07-27T23:36:29.008Z,4.57
2017-07-27T23:38:56.515Z,5.50
2017-07-27T23:41:23.979Z,6.10
2017-07-27T23:43:51.487Z,4.93
2017-07-27T23:46:18.971Z,5.70
2017-07-27T23:48:46.446Z,6.60
2017-07-27T23:51:13.937Z,5.43
2017-07-27T23:53:41.426Z,4.40
2017-07-27T23:56:08.892Z,5.50
2017-07-27T23:58:36.361Z,5.60
